Time;durP1;ratioP1;P1;durP2;ratioP2;P2;SDS_P1;SDS_P2;PMS_P1;PMS_P2;Temp;Humidity;BMP_temperature;BMP_pressure;BME280_temperature;BME280_humidity;BME280_pressure;Samples;Min_cycle;Max_cycle;Signal;HPM_P1;HPM_P2
2021/09/06 00:00:35;;;;;;;14.80;7.72;;;;;;;20.04;65.79;101006.91;5052960;28;20021;-70
2021/09/06 00:03:00;;;;;;;14.27;7.38;;;;;;;20.07;65.33;101007.81;5053330;28;20051;-64
2021/09/06 00:05:26;;;;;;;9.32;7.30;;;;;;;20.03;65.16;100993.81;5052646;28;20021;-68
2021/09/06 00:07:51;;;;;;;11.80;7.60;;;;;;;19.99;64.83;101002.53;5052600;28;20039;-69
2021/09/06 00:10:20;;;;;;;9.35;7.30;;;;;;;20.00;65.00;101005.16;5052129;28;20029;-66
2021/09/06 00:12:46;;;;;;;13.57;7.38;;;;;;;19.94;64.39;100976.28;5052461;28;20024;-66
2021/09/06 00:15:12;;;;;;;10.13;7.50;;;;;;;19.63;64.62;100962.06;5052372;28;20043;-66
2021/09/06 00:17:38;;;;;;;11.25;7.25;;;;;;;19.44;64.96;100948.81;5052282;28;20116;-63
2021/09/06 00:20:05;;;;;;;10.23;7.78;;;;;;;19.40;65.62;100961.00;5052460;28;20024;-67
2021/09/06 00:22:31;;;;;;;10.90;7.30;;;;;;;19.80;65.07;101001.47;5052268;28;20510;-69
2021/09/06 00:24:56;;;;;;;11.45;7.40;;;;;;;19.96;63.82;100999.88;5052179;28;20025;-69
2021/09/06 00:27:22;;;;;;;10.35;7.35;;;;;;;20.05;63.61;101007.81;5051670;28;20021;-69
2021/09/06 00:29:47;;;;;;;12.27;7.50;;;;;;;20.00;63.44;101004.25;5052100;28;20028;-68
2021/09/06 00:32:13;;;;;;;10.52;7.30;;;;;;;19.98;63.19;101000.75;5052006;28;20025;-68
2021/09/06 00:34:38;;;;;;;10.30;7.03;;;;;;;19.83;63.59;100991.91;5052035;28;20021;-69
2021/09/06 00:37:04;;;;;;;14.93;7.75;;;;;;;19.75;63.33;100984.84;5052144;28;20057;-64
2021/09/06 00:39:29;;;;;;;11.40;6.93;;;;;;;19.85;63.38;100995.44;5050744;28;20107;-66
2021/09/06 00:41:54;;;;;;;10.23;7.00;;;;;;;19.87;63.01;101001.53;5051951;28;20021;-67
2021/09/06 00:44:20;;;;;;;14.95;7.10;;;;;;;19.79;62.50;101007.56;5051757;28;20032;-65
2021/09/06 00:46:47;;;;;;;10.88;6.82;;;;;;;19.75;62.16;101005.78;5052252;28;20016;-68
2021/09/06 00:49:16;;;;;;;9.70;6.97;;;;;;;19.75;62.08;100990.06;5051968;28;20071;-67
2021/09/06 00:51:41;;;;;;;9.37;6.47;;;;;;;19.81;61.77;101004.13;5051876;28;20040;-66
2021/09/06 00:54:08;;;;;;;11.30;7.13;;;;;;;19.98;61.36;101022.59;5051647;28;20474;-63
2021/09/06 00:56:33;;;;;;;18.00;8.27;;;;;;;20.01;60.97;101020.00;5051958;28;20032;-63
2021/09/06 00:58:59;;;;;;;29.60;9.10;;;;;;;19.97;60.79;101019.97;5052054;28;20037;-65
2021/09/06 01:01:25;;;;;;;35.17;9.75;;;;;;;20.00;59.49;101019.97;5051549;28;20050;-64
2021/09/06 01:03:50;;;;;;;29.45;8.45;;;;;;;20.00;59.61;101019.97;5051567;28;20036;-65
2021/09/06 01:06:16;;;;;;;31.45;9.23;;;;;;;19.88;58.81;100990.19;5051817;28;20505;-65
2021/09/06 01:08:41;;;;;;;25.10;8.52;;;;;;;19.94;59.66;101004.22;5051251;28;20480;-66
2021/09/06 01:11:07;;;;;;;20.95;8.45;;;;;;;20.08;58.86;101023.53;5051668;28;20054;-62
2021/09/06 01:13:32;;;;;;;25.48;8.80;;;;;;;20.13;58.76;101016.56;5050992;28;20036;-65
2021/09/06 01:15:58;;;;;;;30.67;10.30;;;;;;;20.12;59.16;101009.56;5051368;28;20099;-64
2021/09/06 01:18:24;;;;;;;26.02;8.95;;;;;;;20.03;58.36;101004.28;5051803;28;20045;-64
2021/09/06 01:20:49;;;;;;;21.45;8.20;;;;;;;19.84;58.43;100983.19;5051334;28;20029;-63
2021/09/06 01:23:15;;;;;;;20.55;9.15;;;;;;;20.03;58.50;101020.00;5051092;28;20055;-65
2021/09/06 01:25:40;;;;;;;29.33;9.32;;;;;;;20.07;58.38;101021.78;5050680;28;20107;-64
2021/09/06 01:28:06;;;;;;;21.80;8.45;;;;;;;20.12;58.21;101030.53;5051254;28;20040;-64
2021/09/06 01:30:31;;;;;;;21.63;9.55;;;;;;;20.18;58.54;101029.72;5050907;28;20025;-63
2021/09/06 01:32:57;;;;;;;36.30;9.55;;;;;;;20.07;58.11;101011.28;5050980;28;20037;-64
2021/09/06 01:35:22;;;;;;;31.08;9.43;;;;;;;19.91;57.92;100983.25;5050994;28;20028;-63
2021/09/06 01:37:47;;;;;;;25.05;9.52;;;;;;;20.05;58.57;100997.31;5050724;28;20029;-64
2021/09/06 01:40:13;;;;;;;26.52;10.63;;;;;;;20.15;57.98;101012.22;5032209;28;20079;-64
2021/09/06 01:42:38;;;;;;;12.82;6.97;;;;;;;20.11;57.08;101007.84;5050927;28;20037;-61
2021/09/06 01:45:05;;;;;;;14.43;6.93;;;;;;;20.04;57.15;101022.63;5051182;28;20025;-62
2021/09/06 01:47:31;;;;;;;15.82;7.28;;;;;;;19.98;56.53;101012.09;5050964;28;20025;-63
2021/09/06 01:49:57;;;;;;;10.48;6.65;;;;;;;19.85;56.98;101021.63;5051196;28;20040;-66
2021/09/06 01:52:24;;;;;;;10.70;6.35;;;;;;;19.54;57.45;100981.19;5051037;28;20112;-64
2021/09/06 01:54:49;;;;;;;13.88;6.95;;;;;;;19.66;57.36;101010.09;5050763;28;20025;-63
2021/09/06 01:57:15;;;;;;;12.95;6.40;;;;;;;19.60;58.04;101014.41;5051143;28;20074;-62
2021/09/06 01:59:40;;;;;;;10.23;6.00;;;;;;;19.72;57.13;101014.50;5050957;28;20471;-65
2021/09/06 02:02:06;;;;;;;8.05;5.93;;;;;;;19.54;56.83;101015.25;5050960;28;20029;-63
2021/09/06 02:04:31;;;;;;;9.50;5.70;;;;;;;19.42;57.25;101010.75;5050773;28;20463;-63
2021/09/06 02:06:57;;;;;;;12.48;6.28;;;;;;;19.46;57.52;101014.28;5050391;28;20040;-62
2021/09/06 02:09:22;;;;;;;9.48;5.90;;;;;;;19.31;57.57;101015.03;5050843;28;20029;-63
2021/09/06 02:11:47;;;;;;;10.15;6.03;;;;;;;19.38;57.74;101022.09;5050470;28;20021;-64
2021/09/06 02:14:13;;;;;;;10.52;6.07;;;;;;;19.38;57.78;101024.69;5050921;28;20025;-65
2021/09/06 02:16:38;;;;;;;8.25;5.70;;;;;;;19.22;57.55;101008.81;5050702;28;20106;-67
2021/09/06 02:19:04;;;;;;;9.18;5.70;;;;;;;19.16;57.13;100992.19;5050743;28;20395;-64
2021/09/06 02:21:29;;;;;;;11.15;6.03;;;;;;;19.32;57.05;101022.88;5050696;28;20063;-65
2021/09/06 02:23:56;;;;;;;9.38;5.82;;;;;;;19.34;56.84;101023.78;5050345;28;20091;-62
2021/09/06 02:26:21;;;;;;;9.05;5.45;;;;;;;19.37;56.50;101031.66;5050583;28;20053;-65
2021/09/06 02:28:48;;;;;;;8.48;5.28;;;;;;;19.41;56.95;101035.19;5050366;28;20564;-63
2021/09/06 02:31:14;;;;;;;8.20;5.25;;;;;;;19.22;56.72;101019.28;5050561;28;20036;-65
2021/09/06 02:33:39;;;;;;;9.75;5.13;;;;;;;19.04;56.66;100991.22;5050359;28;20430;-63
2021/09/06 02:36:05;;;;;;;8.13;5.20;;;;;;;19.24;57.03;101022.81;5050650;28;20029;-63
2021/09/06 02:38:30;;;;;;;8.15;5.60;;;;;;;19.33;56.62;101036.88;5050267;28;20021;-63
2021/09/06 02:40:56;;;;;;;10.80;5.25;;;;;;;19.12;56.34;101013.97;5050432;28;20021;-63
2021/09/06 02:43:21;;;;;;;6.65;4.72;;;;;;;19.19;56.69;101036.69;5050741;28;20071;-64
2021/09/06 02:45:49;;;;;;;8.55;4.95;;;;;;;19.11;56.11;101025.28;5050767;28;20025;-64
2021/09/06 02:48:15;;;;;;;7.78;4.88;;;;;;;19.12;56.22;101046.25;5050950;28;20510;-64
2021/09/06 02:50:40;;;;;;;8.65;5.50;;;;;;;19.06;55.99;101043.56;5050544;28;20025;-63
2021/09/06 02:53:06;;;;;;;9.88;5.40;;;;;;;18.83;56.98;101007.50;5050614;28;20086;-64
2021/09/06 02:55:32;;;;;;;11.40;5.93;;;;;;;19.01;57.04;101040.00;5050909;28;20078;-64
2021/09/06 02:57:57;;;;;;;9.10;5.22;;;;;;;19.05;56.58;101047.03;5050665;28;20094;-65
2021/09/06 03:00:25;;;;;;;7.60;5.22;;;;;;;18.79;56.16;101013.59;5050854;28;20028;-64
2021/09/06 03:02:50;;;;;;;10.02;5.65;;;;;;;18.81;56.04;101029.28;5052680;28;20087;-64
2021/09/06 03:05:16;;;;;;;10.73;5.60;;;;;;;18.93;56.68;101053.00;5054243;28;20503;-64
2021/09/06 03:07:41;;;;;;;9.50;4.95;;;;;;;19.00;56.40;101049.59;5054071;28;20029;-64
2021/09/06 03:10:07;;;;;;;7.03;4.78;;;;;;;18.96;56.12;101036.47;5053895;28;20029;-64
2021/09/06 03:12:33;;;;;;;8.93;5.30;;;;;;;19.08;55.98;101057.53;5053853;28;20112;-64
2021/09/06 03:14:58;;;;;;;9.30;5.70;;;;;;;19.05;56.30;101060.13;5054218;28;20079;-65
2021/09/06 03:17:23;;;;;;;7.30;5.13;;;;;;;19.10;55.83;101063.66;5054048;28;20041;-65
2021/09/06 03:19:49;;;;;;;8.65;5.28;;;;;;;18.96;56.12;101067.88;5053832;28;20025;-64
2021/09/06 03:22:16;;;;;;;9.52;5.53;;;;;;;19.06;55.88;101064.50;5054257;28;20033;-64
2021/09/06 03:24:42;;;;;;;8.52;5.10;;;;;;;19.02;56.07;101062.72;5054353;28;20031;-64
2021/09/06 03:27:07;;;;;;;8.68;4.93;;;;;;;18.97;56.10;101062.66;5053643;28;20429;-65
2021/09/06 03:29:33;;;;;;;8.65;5.13;;;;;;;19.02;56.52;101081.03;5053681;28;20025;-64
2021/09/06 03:31:59;;;;;;;10.57;5.43;;;;;;;19.02;56.45;101075.78;5034833;28;20044;-64
2021/09/06 03:34:24;;;;;;;10.48;5.40;;;;;;;19.04;55.81;101074.06;5053623;28;20565;-64
2021/09/06 03:36:53;;;;;;;7.28;4.90;;;;;;;19.04;55.50;101079.28;5053710;28;20029;-64
2021/09/06 03:39:19;;;;;;;8.80;5.00;;;;;;;19.07;56.02;101072.34;5053593;28;20450;-64
2021/09/06 03:41:45;;;;;;;9.43;5.30;;;;;;;19.09;55.72;101075.00;5053416;28;20033;-63
2021/09/06 03:44:10;;;;;;;6.97;5.15;;;;;;;19.07;55.68;101068.88;5018433;28;20504;-64
2021/09/06 03:46:35;;;;;;;8.23;4.82;;;;;;;19.02;56.41;101070.56;5053518;28;20025;-64
2021/09/06 03:49:01;;;;;;;9.85;5.03;;;;;;;18.90;56.14;101063.41;5053343;28;20078;-64
2021/09/06 03:51:26;;;;;;;6.85;4.90;;;;;;;18.87;56.05;101063.38;5053645;28;20117;-65
2021/09/06 03:53:52;;;;;;;8.32;5.47;;;;;;;18.71;56.99;101064.91;5053310;28;20032;-64
2021/09/06 03:56:17;;;;;;;9.07;5.45;;;;;;;18.71;56.50;101072.75;5053549;28;20040;-64
2021/09/06 03:58:43;;;;;;;9.10;5.57;;;;;;;18.67;56.67;101076.19;5053341;28;20036;-64
2021/09/06 04:01:08;;;;;;;11.05;5.35;;;;;;;18.53;56.83;101036.75;5053139;28;20037;-64
2021/09/06 04:03:34;;;;;;;9.90;5.13;;;;;;;18.76;56.59;101078.91;5053070;28;20033;-64
2021/09/06 04:06:00;;;;;;;8.48;5.00;;;;;;;18.82;57.05;101084.22;5053424;28;20037;-64
2021/09/06 04:08:25;;;;;;;10.82;5.35;;;;;;;18.80;57.09;101088.56;5053115;28;20032;-64
2021/09/06 04:10:52;;;;;;;9.40;5.28;;;;;;;18.77;57.37;101099.00;5052772;28;20025;-63
2021/09/06 04:13:18;;;;;;;10.63;5.43;;;;;;;18.47;57.62;101063.72;5051713;28;20032;-64
2021/09/06 04:15:45;;;;;;;10.68;5.70;;;;;;;18.62;57.58;101101.38;5052650;28;20021;-64
2021/09/06 04:18:12;;;;;;;8.68;5.38;;;;;;;18.66;57.38;101101.47;5052987;28;20053;-63
2021/09/06 04:20:38;;;;;;;10.07;5.40;;;;;;;18.65;57.77;101109.28;5035154;28;20037;-64
2021/09/06 04:23:03;;;;;;;8.65;5.88;;;;;;;18.69;57.46;101118.94;5001335;28;20541;-64
2021/09/06 04:25:29;;;;;;;6.75;4.68;;;;;;;18.69;57.46;101113.69;5052495;28;20029;-64
2021/09/06 04:27:54;;;;;;;8.38;5.53;;;;;;;18.76;57.05;101112.94;5052640;28;20059;-65
2021/09/06 04:30:19;;;;;;;11.93;5.20;;;;;;;18.78;57.67;101120.78;5052439;28;20036;-64
2021/09/06 04:32:45;;;;;;;10.38;5.18;;;;;;;18.82;57.89;101120.84;5052470;28;20087;-64
2021/09/06 04:35:10;;;;;;;10.27;5.05;;;;;;;18.63;57.65;101095.31;5052488;28;20017;-64
2021/09/06 04:37:36;;;;;;;12.23;5.25;;;;;;;18.80;57.86;101129.53;5052439;28;20032;-64
2021/09/06 04:40:03;;;;;;;10.57;5.63;;;;;;;18.70;57.73;101120.69;5052052;28;20037;-64
2021/09/06 04:42:28;;;;;;;9.85;5.30;;;;;;;18.68;58.00;101125.00;5052145;28;20087;-63
2021/09/06 04:44:56;;;;;;;9.57;5.03;;;;;;;17.78;57.86;100979.91;5052103;28;20021;-64
2021/09/06 04:47:22;;;;;;;8.85;5.28;;;;;;;18.58;58.33;101126.63;5052109;28;20035;-66
2021/09/06 04:49:47;;;;;;;9.88;5.10;;;;;;;18.50;58.43;101131.72;5052543;28;20020;-65
2021/09/06 04:52:13;;;;;;;9.07;4.97;;;;;;;18.52;59.21;101135.25;5052220;28;20151;-65
2021/09/06 04:54:39;;;;;;;9.73;4.97;;;;;;;18.46;59.59;101131.69;5052301;28;20052;-64
2021/09/06 04:57:04;;;;;;;13.30;5.57;;;;;;;18.47;59.07;101133.41;5052183;28;20053;-64
2021/09/06 04:59:30;;;;;;;11.80;5.43;;;;;;;18.46;59.47;101134.31;5052032;28;20025;-64
2021/09/06 05:01:55;;;;;;;12.57;5.55;;;;;;;18.45;59.22;101132.53;5047338;28;20525;-64
2021/09/06 05:04:20;;;;;;;8.75;5.10;;;;;;;18.43;59.15;101125.53;5047041;28;20453;-66
2021/09/06 05:06:46;;;;;;;11.55;5.05;;;;;;;18.46;58.92;101129.94;5048907;28;20467;-66
2021/09/06 05:09:11;;;;;;;12.50;5.45;;;;;;;18.41;58.69;101122.00;5024438;28;20388;-65
2021/09/06 05:11:37;;;;;;;16.35;5.70;;;;;;;18.43;59.25;101114.22;5043439;28;20403;-64
2021/09/06 05:14:02;;;;;;;12.82;5.22;;;;;;;18.50;58.51;101113.44;5041995;28;20025;-64
2021/09/06 05:16:28;;;;;;;12.05;5.35;;;;;;;18.61;58.22;101125.81;5043802;28;20082;-65
2021/09/06 05:18:53;;;;;;;9.82;4.70;;;;;;;18.53;58.73;101115.22;5048486;28;20099;-64
2021/09/06 05:21:19;;;;;;;9.48;5.30;;;;;;;18.56;57.96;101123.97;5050675;28;20546;-64
2021/09/06 05:23:45;;;;;;;8.93;5.18;;;;;;;18.57;57.76;101128.34;5047863;28;20029;-64
2021/09/06 05:26:11;;;;;;;10.10;4.80;;;;;;;18.54;57.29;101130.03;5051306;28;20040;-64
2021/09/06 05:28:36;;;;;;;9.48;5.03;;;;;;;18.61;57.84;101141.50;5051402;28;20025;-64
2021/09/06 05:31:03;;;;;;;11.95;5.07;;;;;;;18.72;58.48;101142.53;5047533;28;20026;-64
2021/09/06 05:33:30;;;;;;;8.95;4.68;;;;;;;18.76;58.95;101146.94;5031318;28;20029;-64
2021/09/06 05:35:56;;;;;;;9.77;4.90;;;;;;;18.79;58.44;101152.22;5031857;28;20484;-64
2021/09/06 05:38:21;;;;;;;8.27;4.78;;;;;;;18.74;58.30;101132.94;5031712;28;20025;-64
2021/09/06 05:40:47;;;;;;;10.30;4.57;;;;;;;18.74;58.67;101141.69;5031190;28;20091;-64
2021/09/06 05:43:12;;;;;;;9.88;5.07;;;;;;;18.76;59.10;101141.69;5036136;28;20021;-64
2021/09/06 05:45:38;;;;;;;13.23;4.65;;;;;;;18.76;59.09;101150.41;5051328;28;20025;-64
2021/09/06 05:48:04;;;;;;;8.18;4.75;;;;;;;18.73;59.17;101139.94;5051321;28;20039;-64
2021/09/06 05:50:30;;;;;;;8.90;4.40;;;;;;;18.87;59.34;101160.16;5051477;28;20025;-65
2021/09/06 05:52:55;;;;;;;15.75;5.18;;;;;;;19.08;60.05;101163.09;5051448;28;20410;-64
2021/09/06 05:55:21;;;;;;;19.63;5.10;;;;;;;19.27;59.90;101152.84;5051343;28;20053;-64
2021/09/06 05:57:46;;;;;;;9.85;4.50;;;;;;;19.08;57.70;101112.50;5032592;28;20055;-64
2021/09/06 06:00:12;;;;;;;10.10;4.75;;;;;;;19.40;58.26;101160.00;5051223;28;20467;-64
2021/09/06 06:02:37;;;;;;;10.88;5.20;;;;;;;19.56;57.96;101154.94;5051263;28;20475;-65
2021/09/06 06:05:05;;;;;;;13.55;5.38;;;;;;;19.60;57.87;101150.59;5042034;28;20029;-63
2021/09/06 06:07:30;;;;;;;8.45;4.68;;;;;;;19.62;57.41;101130.56;5031230;28;20116;-64
2021/09/06 06:09:56;;;;;;;9.02;4.25;;;;;;;19.79;56.90;101156.91;5031394;28;20472;-64
2021/09/06 06:12:21;;;;;;;9.50;4.53;;;;;;;19.71;57.65;101138.50;4996158;28;20099;-64
2021/09/06 06:14:47;;;;;;;9.38;4.68;;;;;;;19.89;56.88;101150.94;5031156;28;20029;-64
2021/09/06 06:17:12;;;;;;;8.23;4.28;;;;;;;19.93;56.16;101157.09;5031126;28;20480;-64
2021/09/06 06:19:38;;;;;;;8.60;4.05;;;;;;;20.00;56.01;101151.00;5031507;28;20038;-64
2021/09/06 06:22:03;;;;;;;12.05;4.85;;;;;;;20.02;56.10;101154.53;5047811;28;20068;-64
2021/09/06 06:24:29;;;;;;;9.27;4.13;;;;;;;20.09;55.60;101164.22;5050948;28;20025;-64
2021/09/06 06:26:55;;;;;;;12.52;4.97;;;;;;;20.23;55.91;101166.97;5049759;28;20029;-64
2021/09/06 06:29:20;;;;;;;7.53;4.00;;;;;;;20.24;54.89;101154.72;5047129;28;20033;-64
2021/09/06 06:31:46;;;;;;;9.23;4.40;;;;;;;20.36;54.81;101160.06;5030707;28;20126;-62
2021/09/06 06:34:11;;;;;;;9.23;4.30;;;;;;;20.49;54.74;101159.28;5031303;28;20472;-64
2021/09/06 06:36:37;;;;;;;13.60;4.72;;;;;;;20.54;54.46;101164.56;5031509;28;20104;-65
2021/09/06 06:39:05;;;;;;;8.90;4.25;;;;;;;20.65;53.45;101162.03;5034880;28;20032;-64
2021/09/06 06:41:30;;;;;;;12.38;5.20;;;;;;;20.72;55.77;101169.06;5016823;28;20030;-64
2021/09/06 06:43:55;;;;;;;29.40;7.63;;;;;;;20.71;54.71;101164.72;5034470;28;20021;-65
2021/09/06 06:46:21;;;;;;;8.93;4.60;;;;;;;20.60;53.50;101146.25;5034487;28;20033;-64
2021/09/06 06:48:46;;;;;;;7.82;4.53;;;;;;;20.76;54.03;101175.22;5034610;28;20034;-64
2021/09/06 06:51:12;;;;;;;17.52;5.25;;;;;;;20.90;54.35;101180.56;5034484;28;20038;-64
2021/09/06 06:53:37;;;;;;;8.60;3.78;;;;;;;20.96;53.97;101191.97;5034532;28;20036;-67
2021/09/06 06:56:04;;;;;;;8.82;4.35;;;;;;;20.91;53.91;101180.59;5034659;28;20021;-64
2021/09/06 06:58:30;;;;;;;11.95;4.38;;;;;;;21.09;52.71;101187.66;5034357;28;20021;-65
2021/09/06 07:00:56;;;;;;;10.07;4.00;;;;;;;21.10;52.79;101192.03;5034315;28;20084;-65
2021/09/06 07:03:21;;;;;;;8.88;4.07;;;;;;;21.15;50.99;101195.56;5043744;28;20025;-64
2021/09/06 07:05:47;;;;;;;8.55;4.47;;;;;;;21.21;50.77;101189.47;5043124;28;20025;-65
2021/09/06 07:08:12;;;;;;;19.42;5.20;;;;;;;21.17;51.21;101199.09;5034270;28;20053;-64
2021/09/06 07:10:38;;;;;;;18.58;5.30;;;;;;;21.17;49.95;101177.19;5033951;28;20025;-65
2021/09/06 07:13:03;;;;;;;10.13;4.03;;;;;;;21.29;49.67;101168.50;5034080;28;20021;-64
2021/09/06 07:15:32;;;;;;;11.98;4.45;;;;;;;21.48;47.35;101196.59;5033954;28;20056;-64
2021/09/06 07:17:59;;;;;;;5.93;4.50;;;;;;;21.41;48.40;101207.94;5033937;28;20077;-64
2021/09/06 07:20:25;;;;;;;9.40;4.35;;;;;;;21.54;45.86;101202.75;5034300;28;20049;-65
2021/09/06 07:22:50;;;;;;;9.35;4.18;;;;;;;21.79;46.31;101219.47;5034070;28;20022;-65
2021/09/06 07:25:16;;;;;;;6.15;4.13;;;;;;;21.87;43.80;101203.72;5034014;28;20117;-65
2021/09/06 07:27:41;;;;;;;8.93;3.80;;;;;;;21.98;44.00;101207.25;5033826;28;20025;-64
2021/09/06 07:30:07;;;;;;;7.57;4.10;;;;;;;21.82;42.43;101203.72;5015815;28;20040;-66
2021/09/06 07:32:33;;;;;;;12.30;4.05;;;;;;;22.06;42.11;101210.75;5016010;28;20025;-64
2021/09/06 07:34:58;;;;;;;7.57;4.22;;;;;;;22.17;42.11;101204.63;5033713;28;20480;-65
2021/09/06 07:37:24;;;;;;;6.15;3.75;;;;;;;22.32;39.72;101209.91;5033686;28;20080;-68
2021/09/06 07:39:49;;;;;;;10.98;4.20;;;;;;;22.51;37.98;101200.28;5033549;28;20090;-65
2021/09/06 07:42:15;;;;;;;8.50;4.07;;;;;;;22.56;39.96;101208.19;5033455;28;20030;-65
2021/09/06 07:44:40;;;;;;;11.77;5.47;;;;;;;22.51;38.40;101205.56;4982277;28;20049;-64
2021/09/06 07:47:06;;;;;;;6.97;4.45;;;;;;;22.66;37.84;101209.91;5033866;28;20032;-64
2021/09/06 07:49:31;;;;;;;8.73;4.53;;;;;;;22.68;35.67;101208.16;5033506;28;20029;-64
2021/09/06 07:51:57;;;;;;;11.48;4.50;;;;;;;22.64;36.95;101171.31;5033492;28;20022;-65
2021/09/06 07:54:24;;;;;;;12.15;5.00;;;;;;;22.81;38.81;101206.38;5033279;28;20410;-64
2021/09/06 07:56:51;;;;;;;16.88;5.45;;;;;;;22.70;39.22;101211.66;5035547;28;20025;-65
2021/09/06 07:59:17;;;;;;;8.95;4.38;;;;;;;22.56;36.66;101216.06;5043639;28;20410;-65
2021/09/06 08:01:44;;;;;;;6.28;4.13;;;;;;;22.18;36.16;101211.66;5043329;28;20479;-64
2021/09/06 08:04:09;;;;;;;6.97;3.97;;;;;;;22.10;36.62;101219.53;5049246;28;20052;-65
2021/09/06 08:06:35;;;;;;;6.88;3.85;;;;;;;22.06;38.20;101213.41;5043576;28;20059;-63
2021/09/06 08:09:00;;;;;;;7.35;4.20;;;;;;;22.03;37.78;101208.16;5042981;28;20101;-63
2021/09/06 08:11:26;;;;;;;7.03;4.10;;;;;;;22.12;38.54;101208.16;5041675;28;20039;-65
2021/09/06 08:13:51;;;;;;;12.82;4.60;;;;;;;22.22;35.19;101211.66;5043471;28;20036;-66
2021/09/06 08:16:17;;;;;;;11.20;4.45;;;;;;;22.42;35.24;101213.47;5042353;28;20079;-65
2021/09/06 08:18:42;;;;;;;7.57;3.85;;;;;;;22.71;33.82;101204.66;5024455;28;20048;-66
2021/09/06 08:21:08;;;;;;;7.30;3.80;;;;;;;22.93;34.78;101213.41;5043592;28;20098;-63
2021/09/06 08:23:34;;;;;;;8.93;3.80;;;;;;;23.03;33.87;101208.94;5041688;28;20095;-64
2021/09/06 08:25:59;;;;;;;7.22;3.85;;;;;;;23.15;32.74;101213.31;5042479;28;20027;-65
2021/09/06 08:28:25;;;;;;;7.00;4.28;;;;;;;23.26;33.98;101216.81;5042866;28;20017;-64
2021/09/06 08:30:50;;;;;;;10.10;4.20;;;;;;;23.14;32.29;101180.84;5041294;28;20025;-65
2021/09/06 08:33:16;;;;;;;5.70;4.00;;;;;;;23.32;30.76;101216.81;5042875;28;20027;-64
2021/09/06 08:35:42;;;;;;;7.22;3.90;;;;;;;23.39;31.05;101207.09;5042954;28;20025;-66
2021/09/06 08:38:08;;;;;;;5.90;4.07;;;;;;;23.66;31.39;101219.28;5041287;28;20037;-67
2021/09/06 08:40:35;;;;;;;6.20;4.07;;;;;;;23.86;29.47;101216.53;5040229;28;20434;-65
2021/09/06 08:43:04;;;;;;;6.65;3.88;;;;;;;23.73;30.38;101178.81;5047623;28;20029;-65
2021/09/06 08:45:32;;;;;;;6.60;4.00;;;;;;;23.94;31.59;101219.16;5043904;28;20053;-66
2021/09/06 08:47:58;;;;;;;5.63;3.60;;;;;;;23.87;29.46;101209.50;5042359;28;20505;-65
2021/09/06 08:50:23;;;;;;;8.43;3.80;;;;;;;24.06;29.81;101200.59;5042778;28;20022;-65
2021/09/06 08:52:49;;;;;;;10.60;4.00;;;;;;;24.19;29.19;101204.00;5040698;28;20036;-65
2021/09/06 08:55:14;;;;;;;7.95;3.75;;;;;;;24.16;29.91;101203.16;5042455;28;20112;-65
2021/09/06 08:57:40;;;;;;;5.57;3.58;;;;;;;24.17;28.71;101197.00;5042247;28;20041;-65
2021/09/06 09:00:06;;;;;;;6.90;4.05;;;;;;;24.30;29.45;101205.69;5040725;28;20472;-65
2021/09/06 09:02:36;;;;;;;8.32;3.85;;;;;;;24.28;28.71;101205.72;5025041;28;20021;-65
2021/09/06 09:05:08;;;;;;;6.25;3.72;;;;;;;24.32;29.44;101203.91;5047495;28;20074;-65
2021/09/06 09:07:34;;;;;;;11.73;3.92;;;;;;;24.13;28.47;101166.28;5051625;28;20028;-65
2021/09/06 09:09:59;;;;;;;7.18;3.85;;;;;;;24.20;29.67;101207.50;5048453;28;20032;-65
2021/09/06 09:12:28;;;;;;;6.35;3.95;;;;;;;24.35;28.54;101195.97;5029399;28;20574;-65
2021/09/06 09:14:55;;;;;;;6.47;3.50;;;;;;;24.14;29.74;101160.06;5049324;28;20068;-65
2021/09/06 09:17:21;;;;;;;11.60;4.18;;;;;;;24.28;29.09;101192.50;5051686;28;20021;-66
2021/09/06 09:19:48;;;;;;;8.00;3.80;;;;;;;24.06;28.48;101160.16;5050915;28;20110;-66
2021/09/06 09:22:19;;;;;;;6.82;3.70;;;;;;;24.23;29.35;101167.94;5048523;28;20025;-68
2021/09/06 09:24:56;;;;;;;10.98;3.80;;;;;;;24.64;27.99;101189.56;5047956;28;20040;-65
2021/09/06 09:27:36;;;;;;;8.15;3.70;;;;;;;24.82;27.56;101181.47;5031862;28;20404;-67
2021/09/06 09:30:09;;;;;;;10.15;3.90;;;;;;;24.75;26.90;101173.63;5045855;28;20056;-67
2021/09/06 09:32:37;;;;;;;18.17;6.05;;;;;;;24.75;26.75;101178.91;5042135;28;20032;-68
2021/09/06 09:35:06;;;;;;;19.25;6.15;;;;;;;25.02;27.00;101191.81;5041771;28;20095;-66
2021/09/06 09:37:32;;;;;;;10.02;4.43;;;;;;;25.22;26.00;101180.09;5051686;28;20055;-67
2021/09/06 09:40:04;;;;;;;8.13;4.00;;;;;;;25.34;27.28;101187.03;5051121;28;20455;-67
2021/09/06 09:42:29;;;;;;;6.65;3.42;;;;;;;25.37;27.69;101184.34;5049382;28;20027;-67
2021/09/06 09:44:58;;;;;;;6.13;3.97;;;;;;;25.41;24.98;101151.72;5040446;28;20041;-68
2021/09/06 09:47:26;;;;;;;33.63;7.55;;;;;;;25.68;25.82;101182.19;5034234;28;20810;-66
2021/09/06 09:49:57;;;;;;;19.23;6.50;;;;;;;25.73;26.93;101166.22;5042589;28;20033;-67
2021/09/06 09:52:24;;;;;;;6.10;3.50;;;;;;;25.41;26.36;101169.34;5047662;28;20036;-67
2021/09/06 09:54:55;;;;;;;6.85;4.32;;;;;;;25.13;28.35;101140.59;5049795;28;20483;-64
2021/09/06 09:57:25;;;;;;;8.45;3.83;;;;;;;25.36;28.93;101172.03;5049993;28;20022;-65
2021/09/06 09:59:52;;;;;;;6.63;3.90;;;;;;;25.59;28.06;101169.06;5043482;28;20049;-68
2021/09/06 10:02:29;;;;;;;7.78;4.18;;;;;;;25.64;27.48;101124.94;5049232;28;20048;-65
2021/09/06 10:05:01;;;;;;;6.22;3.90;;;;;;;25.95;26.09;101155.31;5046561;28;20028;-68
2021/09/06 10:07:41;;;;;;;6.68;3.60;;;;;;;26.24;29.13;101154.00;5032069;28;20099;-64
2021/09/06 10:10:17;;;;;;;9.73;4.13;;;;;;;26.06;26.97;101140.19;5049877;28;20025;-67
2021/09/06 10:12:43;;;;;;;5.90;3.70;;;;;;;26.08;25.33;101143.69;5053383;28;20029;-64
2021/09/06 10:15:10;;;;;;;9.38;4.30;;;;;;;26.29;28.20;101150.38;5054030;28;20028;-68
2021/09/06 10:17:43;;;;;;;7.07;4.65;;;;;;;26.60;26.29;101147.13;5010015;28;20439;-65
2021/09/06 10:20:12;;;;;;;11.65;5.13;;;;;;;26.73;25.23;101154.84;5010974;28;20084;-67
2021/09/06 10:22:39;;;;;;;12.73;4.03;;;;;;;26.78;27.10;101145.97;5011770;28;21446;-69
2021/09/06 10:25:07;;;;;;;5.30;3.88;;;;;;;26.73;26.04;101152.19;4992881;28;20026;-69
2021/09/06 10:27:36;;;;;;;7.43;4.13;;;;;;;26.87;24.78;101149.34;5008329;28;20052;-66
2021/09/06 10:30:08;;;;;;;14.80;4.38;;;;;;;27.05;25.06;101148.06;5008082;28;20604;-66
2021/09/06 10:32:44;;;;;;;7.78;4.20;;;;;;;27.10;24.82;101143.53;5010442;28;20037;-66
2021/09/06 10:35:21;;;;;;;9.07;4.32;;;;;;;27.10;25.80;101140.91;5001353;28;20038;-67
2021/09/06 10:37:58;;;;;;;6.07;3.90;;;;;;;26.96;23.71;101104.94;5010252;28;20084;-66
2021/09/06 10:40:36;;;;;;;5.20;3.50;;;;;;;27.06;25.57;101137.44;5003684;28;20041;-67
2021/09/06 10:43:41;;;;;;;6.85;3.92;;;;;;;26.89;26.02;101135.16;4973228;28;20046;-68
2021/09/06 10:46:08;;;;;;;5.93;3.72;;;;;;;26.79;24.34;101117.69;4931316;29;20039;-68
2021/09/06 10:48:36;;;;;;;6.80;3.88;;;;;;;26.75;25.73;101126.59;4952038;28;20057;-67
2021/09/06 10:51:02;;;;;;;9.10;3.90;;;;;;;26.80;25.04;101092.94;4969100;28;20556;-64
2021/09/06 10:53:28;;;;;;;11.77;4.10;;;;;;;26.64;25.29;101072.06;4971625;28;20034;-66
2021/09/06 10:55:56;;;;;;;8.10;3.88;;;;;;;27.22;24.40;101127.38;4964911;28;20061;-67
2021/09/06 10:58:24;;;;;;;7.85;4.45;;;;;;;27.35;23.73;101116.50;4964552;28;20037;-68
2021/09/06 11:00:52;;;;;;;6.90;3.60;;;;;;;27.31;24.50;101080.38;4969674;28;20031;-69
2021/09/06 11:03:19;;;;;;;5.57;3.80;;;;;;;27.60;23.88;101116.81;4970070;28;20043;-68
2021/09/06 11:05:58;;;;;;;11.32;4.80;;;;;;;27.77;23.33;101113.78;4967852;28;20512;-68
2021/09/06 11:08:37;;;;;;;7.53;4.15;;;;;;;27.92;24.50;101113.38;4967392;28;20047;-69
2021/09/06 11:11:05;;;;;;;9.18;4.28;;;;;;;27.83;23.56;101110.97;4968003;28;20034;-69
2021/09/06 11:13:42;;;;;;;5.82;3.78;;;;;;;27.56;23.38;101097.47;4966250;28;20125;-68
2021/09/06 11:16:11;;;;;;;7.57;3.85;;;;;;;27.40;23.63;101112.88;4972567;28;20575;-68
2021/09/06 11:18:39;;;;;;;5.95;3.60;;;;;;;27.41;24.46;101097.84;4966706;28;20070;-65